METAR és
SPECI
METAR LHBP 200130Z 06004KT 040V100 CAVOK 14/14 Q1016 NOSIG=
METAR LHBP 200100Z 06004KT CAVOK 15/14 Q1017 NOSIG=
METAR LHBP 200030Z 07004KT 360V110 CAVOK 15/15 Q1017 NOSIG=
METAR LHBP 200000Z VRB02KT CAVOK 14/14 Q1017 NOSIG=
METAR LHBP 192330Z 08004KT CAVOK 15/14 Q1017 NOSIG=
METAR LHBP 192300Z VRB03KT 9999 FEW035 16/14 Q1017 NOSIG=
TAF
TAF LHBP 192300Z 2000/2024 VRB03KT CAVOK BECMG 2006/2009 13007KT 9999 SCT030 SCT090 PROB30 TEMPO 2009/2013 VRB12KT 7000 SHRA SCT020CB BKN030 BECMG 2013/2016 VRB03KT CAVOK=
GAMET
Nincs érvényes távirat! 
FAHU41 LHBM 191100
LHCC GAMET VALID 191200/191800 LHBP-
BUDAPEST FIR BLW FL100
SECN 1
HAZARDOUS WX NIL=
AIRMET
Nincs érvényes távirat! 
WAHU41 LHBM 161415
LHCC AIRMET 02 VALID 161400/161500 LHBP-
LHCC BUDAPEST FIR ISOL TS OBS S OF LINE N4630 INTSF NC=
SIGMET
Nincs érvényes távirat! 
WSHU31 LHBM 151630
LHCC SIGMET 03 VALID 151630/151900 LHBP-
LHCC BUDAPEST FIR EMBD TS OBS AT 1630Z NE OF LINE
N4548 E01800 - N4713 E01932 - N4810 E02003 TOP FL340
MOV NW WKN=
SIGMET
Vulkáni hamufelhő
Nincs érvényes távirat! 
WVHU31 LHBM 271515 CCA
LHCC SIGMET 03 VALID 271515/271800 LHBP-
LHCC BUDAPEST FIR EXERCISE VOLCEX12/01
CNL VA SIGMET 02 271200/271800
EXERCISE EXERCISE EXERCISE VOLCEX12/01=